Terminal Aerodrome Forecast
Issued by NWS Topeka, KS

Home | Current Version | Previous Version | Text Only | Print | Product List | Glossary Off
Versions: 1 2 3 4 5 6 7 8 9 10 11 12 13 14 15 16 17

000
FTUS43 KTOP 032340
TAFTOP
TAF
KTOP 032340Z 0400/0424 09004KT 6SM -SHRA BR OVC040
     FM040500 10003KT 4SM -RA OVC015
     FM040800 VRB03KT 4SM -RA OVC008
     FM041400 26004KT P6SM OVC015
     FM041600 27005KT P6SM SCT100=

USA.gov is the U.S. government's official web portal to all federal, state and local government web resources and services.